sensor_id;sensor_type;location;lat;lon;timestamp;P1;durP1;ratioP1;P2;durP2;ratioP2
22660;SDS011;11497;52.222;21.246;2023-03-01T00:01:40;93.57;;;41.90;;
22660;SDS011;11497;52.222;21.246;2023-03-01T00:04:08;104.43;;;41.40;;
22660;SDS011;11497;52.222;21.246;2023-03-01T00:06:36;99.15;;;39.17;;
22660;SDS011;11497;52.222;21.246;2023-03-01T00:09:04;101.57;;;42.03;;
22660;SDS011;11497;52.222;21.246;2023-03-01T00:11:33;102.32;;;41.47;;
22660;SDS011;11497;52.222;21.246;2023-03-01T00:14:01;107.70;;;42.40;;
22660;SDS011;11497;52.222;21.246;2023-03-01T00:16:40;101.10;;;43.15;;
22660;SDS011;11497;52.222;21.246;2023-03-01T00:19:14;98.18;;;42.67;;
22660;SDS011;11497;52.222;21.246;2023-03-01T00:21:44;110.22;;;42.38;;
22660;SDS011;11497;52.222;21.246;2023-03-01T00:24:12;93.07;;;40.92;;
22660;SDS011;11497;52.222;21.246;2023-03-01T00:26:40;93.68;;;40.90;;
22660;SDS011;11497;52.222;21.246;2023-03-01T00:29:08;95.75;;;40.45;;
22660;SDS011;11497;52.222;21.246;2023-03-01T00:31:36;98.90;;;43.30;;
22660;SDS011;11497;52.222;21.246;2023-03-01T00:34:05;94.60;;;41.15;;
22660;SDS011;11497;52.222;21.246;2023-03-01T00:36:34;102.47;;;41.30;;
22660;SDS011;11497;52.222;21.246;2023-03-01T00:39:05;96.10;;;41.15;;
22660;SDS011;11497;52.222;21.246;2023-03-01T00:41:37;103.72;;;42.70;;
22660;SDS011;11497;52.222;21.246;2023-03-01T00:44:07;91.93;;;39.22;;
22660;SDS011;11497;52.222;21.246;2023-03-01T00:46:36;93.32;;;40.90;;
22660;SDS011;11497;52.222;21.246;2023-03-01T00:49:04;89.18;;;39.92;;
22660;SDS011;11497;52.222;21.246;2023-03-01T00:51:32;98.13;;;41.58;;
22660;SDS011;11497;52.222;21.246;2023-03-01T00:54:01;89.28;;;40.13;;
22660;SDS011;11497;52.222;21.246;2023-03-01T00:56:29;94.57;;;41.35;;
22660;SDS011;11497;52.222;21.246;2023-03-01T00:58:59;93.22;;;41.33;;
22660;SDS011;11497;52.222;21.246;2023-03-01T01:01:29;102.53;;;41.35;;
22660;SDS011;11497;52.222;21.246;2023-03-01T01:04:00;104.63;;;42.05;;
22660;SDS011;11497;52.222;21.246;2023-03-01T01:06:34;97.30;;;40.45;;
22660;SDS011;11497;52.222;21.246;2023-03-01T01:09:05;96.35;;;40.90;;
22660;SDS011;11497;52.222;21.246;2023-03-01T01:11:34;99.57;;;42.65;;
22660;SDS011;11497;52.222;21.246;2023-03-01T01:14:05;100.43;;;43.35;;
22660;SDS011;11497;52.222;21.246;2023-03-01T01:16:33;107.05;;;45.13;;
22660;SDS011;11497;52.222;21.246;2023-03-01T01:19:01;102.82;;;42.05;;
22660;SDS011;11497;52.222;21.246;2023-03-01T01:21:29;100.53;;;42.35;;
22660;SDS011;11497;52.222;21.246;2023-03-01T01:23:57;101.13;;;42.38;;
22660;SDS011;11497;52.222;21.246;2023-03-01T01:26:26;104.50;;;42.55;;
22660;SDS011;11497;52.222;21.246;2023-03-01T01:28:59;102.78;;;43.20;;
22660;SDS011;11497;52.222;21.246;2023-03-01T01:31:28;95.20;;;40.90;;
22660;SDS011;11497;52.222;21.246;2023-03-01T01:33:57;103.57;;;43.50;;
22660;SDS011;11497;52.222;21.246;2023-03-01T01:36:27;100.85;;;42.63;;
22660;SDS011;11497;52.222;21.246;2023-03-01T01:38:56;95.63;;;42.60;;
22660;SDS011;11497;52.222;21.246;2023-03-01T01:41:25;105.97;;;44.03;;
22660;SDS011;11497;52.222;21.246;2023-03-01T01:54:57;93.78;;;42.67;;
22660;SDS011;11497;52.222;21.246;2023-03-01T01:57:48;100.75;;;42.35;;
22660;SDS011;11497;52.222;21.246;2023-03-01T02:00:21;102.13;;;43.72;;
22660;SDS011;11497;52.222;21.246;2023-03-01T02:03:01;101.03;;;43.67;;
22660;SDS011;11497;52.222;21.246;2023-03-01T02:08:03;96.15;;;43.22;;
22660;SDS011;11497;52.222;21.246;2023-03-01T02:10:32;103.63;;;43.58;;
22660;SDS011;11497;52.222;21.246;2023-03-01T02:13:02;102.60;;;44.38;;
22660;SDS011;11497;52.222;21.246;2023-03-01T02:15:34;109.10;;;44.78;;
22660;SDS011;11497;52.222;21.246;2023-03-01T02:20:40;101.97;;;43.25;;
22660;SDS011;11497;52.222;21.246;2023-03-01T02:23:12;99.63;;;43.15;;
22660;SDS011;11497;52.222;21.246;2023-03-01T02:30:45;104.65;;;42.38;;
22660;SDS011;11497;52.222;21.246;2023-03-01T02:33:36;102.88;;;44.40;;
22660;SDS011;11497;52.222;21.246;2023-03-01T02:39:20;106.15;;;44.22;;
22660;SDS011;11497;52.222;21.246;2023-03-01T02:42:01;107.55;;;43.00;;
22660;SDS011;11497;52.222;21.246;2023-03-01T02:44:31;104.53;;;42.97;;
22660;SDS011;11497;52.222;21.246;2023-03-01T02:47:00;106.80;;;42.67;;
22660;SDS011;11497;52.222;21.246;2023-03-01T02:49:31;101.68;;;41.70;;
22660;SDS011;11497;52.222;21.246;2023-03-01T02:57:29;113.28;;;45.72;;
22660;SDS011;11497;52.222;21.246;2023-03-01T02:59:59;107.93;;;43.45;;
22660;SDS011;11497;52.222;21.246;2023-03-01T03:02:35;101.93;;;43.20;;
22660;SDS011;11497;52.222;21.246;2023-03-01T03:07:57;110.82;;;44.78;;
22660;SDS011;11497;52.222;21.246;2023-03-01T03:10:35;102.63;;;45.08;;
22660;SDS011;11497;52.222;21.246;2023-03-01T03:13:07;106.87;;;45.47;;
22660;SDS011;11497;52.222;21.246;2023-03-01T03:15:37;107.50;;;44.40;;
22660;SDS011;11497;52.222;21.246;2023-03-01T03:18:08;109.57;;;45.20;;
22660;SDS011;11497;52.222;21.246;2023-03-01T03:20:39;120.97;;;48.47;;
22660;SDS011;11497;52.222;21.246;2023-03-01T03:23:09;105.53;;;44.28;;
22660;SDS011;11497;52.222;21.246;2023-03-01T03:25:37;102.03;;;44.05;;
22660;SDS011;11497;52.222;21.246;2023-03-01T03:28:05;99.60;;;42.40;;
22660;SDS011;11497;52.222;21.246;2023-03-01T03:30:38;104.10;;;43.03;;
22660;SDS011;11497;52.222;21.246;2023-03-01T03:33:07;102.13;;;41.95;;
22660;SDS011;11497;52.222;21.246;2023-03-01T03:35:46;99.28;;;42.85;;
22660;SDS011;11497;52.222;21.246;2023-03-01T03:38:16;97.20;;;42.28;;
22660;SDS011;11497;52.222;21.246;2023-03-01T03:40:46;96.45;;;42.60;;
22660;SDS011;11497;52.222;21.246;2023-03-01T03:43:20;100.93;;;41.83;;
22660;SDS011;11497;52.222;21.246;2023-03-01T03:45:50;97.75;;;41.70;;
22660;SDS011;11497;52.222;21.246;2023-03-01T03:48:18;95.32;;;42.03;;
22660;SDS011;11497;52.222;21.246;2023-03-01T03:50:48;95.45;;;41.08;;
22660;SDS011;11497;52.222;21.246;2023-03-01T03:53:20;103.20;;;43.38;;
22660;SDS011;11497;52.222;21.246;2023-03-01T03:55:49;109.03;;;44.25;;
22660;SDS011;11497;52.222;21.246;2023-03-01T03:58:18;103.03;;;41.88;;
22660;SDS011;11497;52.222;21.246;2023-03-01T04:00:48;99.38;;;42.95;;
22660;SDS011;11497;52.222;21.246;2023-03-01T04:03:19;111.78;;;44.03;;
22660;SDS011;11497;52.222;21.246;2023-03-01T04:05:49;97.63;;;42.10;;
22660;SDS011;11497;52.222;21.246;2023-03-01T04:08:21;98.38;;;42.58;;
22660;SDS011;11497;52.222;21.246;2023-03-01T04:10:51;104.28;;;42.10;;
22660;SDS011;11497;52.222;21.246;2023-03-01T04:13:23;107.05;;;43.80;;
22660;SDS011;11497;52.222;21.246;2023-03-01T04:15:52;108.38;;;45.65;;
22660;SDS011;11497;52.222;21.246;2023-03-01T04:18:21;109.30;;;44.92;;
22660;SDS011;11497;52.222;21.246;2023-03-01T04:20:52;105.45;;;44.90;;
22660;SDS011;11497;52.222;21.246;2023-03-01T04:23:22;101.95;;;43.20;;
22660;SDS011;11497;52.222;21.246;2023-03-01T04:25:54;98.68;;;42.25;;
22660;SDS011;11497;52.222;21.246;2023-03-01T04:30:57;106.43;;;42.38;;
22660;SDS011;11497;52.222;21.246;2023-03-01T04:33:25;101.95;;;42.55;;
22660;SDS011;11497;52.222;21.246;2023-03-01T04:35:53;100.07;;;41.33;;
22660;SDS011;11497;52.222;21.246;2023-03-01T04:38:21;100.70;;;42.92;;
22660;SDS011;11497;52.222;21.246;2023-03-01T04:40:50;102.60;;;42.25;;
22660;SDS011;11497;52.222;21.246;2023-03-01T04:43:17;98.55;;;42.67;;
22660;SDS011;11497;52.222;21.246;2023-03-01T04:45:45;98.63;;;40.70;;
22660;SDS011;11497;52.222;21.246;2023-03-01T04:48:13;104.43;;;42.28;;
22660;SDS011;11497;52.222;21.246;2023-03-01T04:50:41;102.20;;;42.45;;
22660;SDS011;11497;52.222;21.246;2023-03-01T04:53:09;95.70;;;42.33;;
22660;SDS011;11497;52.222;21.246;2023-03-01T04:55:37;98.88;;;42.42;;
22660;SDS011;11497;52.222;21.246;2023-03-01T04:58:04;102.32;;;42.90;;
22660;SDS011;11497;52.222;21.246;2023-03-01T05:00:33;99.43;;;42.65;;
22660;SDS011;11497;52.222;21.246;2023-03-01T05:03:00;99.55;;;43.65;;
22660;SDS011;11497;52.222;21.246;2023-03-01T05:05:33;95.78;;;42.45;;
22660;SDS011;11497;52.222;21.246;2023-03-01T05:10:32;105.07;;;41.95;;
22660;SDS011;11497;52.222;21.246;2023-03-01T05:13:02;94.45;;;39.83;;
22660;SDS011;11497;52.222;21.246;2023-03-01T05:15:31;98.38;;;39.65;;
22660;SDS011;11497;52.222;21.246;2023-03-01T05:17:59;95.10;;;39.92;;
22660;SDS011;11497;52.222;21.246;2023-03-01T05:20:30;106.97;;;44.88;;
22660;SDS011;11497;52.222;21.246;2023-03-01T05:22:58;107.53;;;43.25;;
22660;SDS011;11497;52.222;21.246;2023-03-01T05:25:27;97.80;;;42.70;;
22660;SDS011;11497;52.222;21.246;2023-03-01T05:28:00;109.60;;;45.58;;
22660;SDS011;11497;52.222;21.246;2023-03-01T05:30:33;102.30;;;44.03;;
22660;SDS011;11497;52.222;21.246;2023-03-01T05:33:01;111.28;;;46.03;;
22660;SDS011;11497;52.222;21.246;2023-03-01T05:35:29;121.03;;;49.15;;
22660;SDS011;11497;52.222;21.246;2023-03-01T05:37:59;117.85;;;48.67;;
22660;SDS011;11497;52.222;21.246;2023-03-01T05:40:27;125.68;;;50.95;;
22660;SDS011;11497;52.222;21.246;2023-03-01T05:42:56;137.35;;;54.05;;
22660;SDS011;11497;52.222;21.246;2023-03-01T05:45:24;125.80;;;53.40;;
22660;SDS011;11497;52.222;21.246;2023-03-01T05:47:53;128.75;;;51.47;;
22660;SDS011;11497;52.222;21.246;2023-03-01T05:50:22;135.25;;;51.67;;
22660;SDS011;11497;52.222;21.246;2023-03-01T05:52:56;126.40;;;52.75;;
22660;SDS011;11497;52.222;21.246;2023-03-01T05:55:25;135.52;;;56.83;;
22660;SDS011;11497;52.222;21.246;2023-03-01T05:57:54;133.02;;;58.05;;
22660;SDS011;11497;52.222;21.246;2023-03-01T06:00:24;125.32;;;54.75;;
22660;SDS011;11497;52.222;21.246;2023-03-01T06:02:53;110.75;;;49.25;;
22660;SDS011;11497;52.222;21.246;2023-03-01T06:05:22;106.93;;;49.25;;
22660;SDS011;11497;52.222;21.246;2023-03-01T06:07:51;103.13;;;47.10;;
22660;SDS011;11497;52.222;21.246;2023-03-01T06:10:20;113.32;;;49.88;;
22660;SDS011;11497;52.222;21.246;2023-03-01T06:12:49;112.00;;;50.13;;
22660;SDS011;11497;52.222;21.246;2023-03-01T06:15:17;108.22;;;48.90;;
22660;SDS011;11497;52.222;21.246;2023-03-01T06:17:45;109.55;;;50.28;;
22660;SDS011;11497;52.222;21.246;2023-03-01T06:20:17;110.28;;;49.28;;
22660;SDS011;11497;52.222;21.246;2023-03-01T06:22:47;108.97;;;50.75;;
22660;SDS011;11497;52.222;21.246;2023-03-01T06:25:17;105.72;;;46.30;;
22660;SDS011;11497;52.222;21.246;2023-03-01T06:27:46;104.75;;;45.25;;
22660;SDS011;11497;52.222;21.246;2023-03-01T06:30:17;99.57;;;43.50;;
22660;SDS011;11497;52.222;21.246;2023-03-01T06:32:45;95.55;;;43.55;;
22660;SDS011;11497;52.222;21.246;2023-03-01T06:35:14;106.25;;;49.53;;
22660;SDS011;11497;52.222;21.246;2023-03-01T06:37:46;100.32;;;49.92;;
22660;SDS011;11497;52.222;21.246;2023-03-01T06:40:15;94.78;;;44.97;;
22660;SDS011;11497;52.222;21.246;2023-03-01T06:42:47;87.25;;;42.80;;
22660;SDS011;11497;52.222;21.246;2023-03-01T06:45:17;85.50;;;40.50;;
22660;SDS011;11497;52.222;21.246;2023-03-01T06:47:46;89.28;;;41.20;;
22660;SDS011;11497;52.222;21.246;2023-03-01T06:50:14;91.50;;;42.15;;
22660;SDS011;11497;52.222;21.246;2023-03-01T06:52:43;87.60;;;39.83;;
22660;SDS011;11497;52.222;21.246;2023-03-01T06:55:12;80.15;;;39.17;;
22660;SDS011;11497;52.222;21.246;2023-03-01T06:57:40;72.38;;;38.40;;
22660;SDS011;11497;52.222;21.246;2023-03-01T07:00:08;79.72;;;40.08;;
22660;SDS011;11497;52.222;21.246;2023-03-01T07:02:36;77.75;;;37.78;;
22660;SDS011;11497;52.222;21.246;2023-03-01T07:05:05;76.93;;;38.65;;
22660;SDS011;11497;52.222;21.246;2023-03-01T07:07:35;74.70;;;37.00;;
22660;SDS011;11497;52.222;21.246;2023-03-01T07:10:03;75.50;;;37.45;;
22660;SDS011;11497;52.222;21.246;2023-03-01T07:12:32;77.65;;;38.17;;
22660;SDS011;11497;52.222;21.246;2023-03-01T07:15:00;87.80;;;42.63;;
22660;SDS011;11497;52.222;21.246;2023-03-01T07:17:28;82.88;;;40.25;;
22660;SDS011;11497;52.222;21.246;2023-03-01T07:19:56;73.78;;;37.47;;
22660;SDS011;11497;52.222;21.246;2023-03-01T07:22:24;75.72;;;37.28;;
22660;SDS011;11497;52.222;21.246;2023-03-01T07:24:52;70.25;;;36.15;;
22660;SDS011;11497;52.222;21.246;2023-03-01T07:27:20;70.95;;;35.50;;
22660;SDS011;11497;52.222;21.246;2023-03-01T07:29:48;70.68;;;33.83;;
22660;SDS011;11497;52.222;21.246;2023-03-01T07:32:16;70.43;;;36.03;;
22660;SDS011;11497;52.222;21.246;2023-03-01T07:34:44;66.25;;;34.40;;
22660;SDS011;11497;52.222;21.246;2023-03-01T07:37:12;73.57;;;34.67;;
22660;SDS011;11497;52.222;21.246;2023-03-01T07:39:40;69.03;;;35.05;;
22660;SDS011;11497;52.222;21.246;2023-03-01T07:42:08;65.85;;;34.60;;
22660;SDS011;11497;52.222;21.246;2023-03-01T07:44:36;67.63;;;33.97;;
22660;SDS011;11497;52.222;21.246;2023-03-01T07:47:04;64.32;;;33.42;;
22660;SDS011;11497;52.222;21.246;2023-03-01T07:49:32;63.63;;;32.88;;
22660;SDS011;11497;52.222;21.246;2023-03-01T07:52:00;62.55;;;32.03;;
22660;SDS011;11497;52.222;21.246;2023-03-01T07:54:28;61.55;;;33.53;;
22660;SDS011;11497;52.222;21.246;2023-03-01T07:56:56;57.55;;;30.30;;
22660;SDS011;11497;52.222;21.246;2023-03-01T07:59:25;60.28;;;31.75;;
22660;SDS011;11497;52.222;21.246;2023-03-01T08:01:56;52.53;;;29.88;;
22660;SDS011;11497;52.222;21.246;2023-03-01T08:04:24;55.63;;;29.35;;
22660;SDS011;11497;52.222;21.246;2023-03-01T08:06:54;50.85;;;27.00;;
22660;SDS011;11497;52.222;21.246;2023-03-01T08:09:22;50.58;;;26.05;;
22660;SDS011;11497;52.222;21.246;2023-03-01T08:11:49;43.10;;;25.30;;
22660;SDS011;11497;52.222;21.246;2023-03-01T08:14:17;46.08;;;24.50;;
22660;SDS011;11497;52.222;21.246;2023-03-01T08:16:48;43.17;;;22.23;;
22660;SDS011;11497;52.222;21.246;2023-03-01T08:19:17;41.85;;;22.38;;
22660;SDS011;11497;52.222;21.246;2023-03-01T08:21:44;40.35;;;21.75;;
22660;SDS011;11497;52.222;21.246;2023-03-01T08:24:12;41.75;;;21.33;;
22660;SDS011;11497;52.222;21.246;2023-03-01T08:26:40;39.35;;;22.60;;
22660;SDS011;11497;52.222;21.246;2023-03-01T08:29:08;41.40;;;21.98;;
22660;SDS011;11497;52.222;21.246;2023-03-01T08:31:37;40.47;;;21.35;;
22660;SDS011;11497;52.222;21.246;2023-03-01T08:34:10;39.47;;;21.70;;
22660;SDS011;11497;52.222;21.246;2023-03-01T08:36:43;44.00;;;21.85;;
22660;SDS011;11497;52.222;21.246;2023-03-01T08:39:14;36.28;;;20.77;;
22660;SDS011;11497;52.222;21.246;2023-03-01T08:41:43;37.05;;;21.63;;
22660;SDS011;11497;52.222;21.246;2023-03-01T08:44:14;35.55;;;21.42;;
22660;SDS011;11497;52.222;21.246;2023-03-01T08:46:43;38.78;;;21.02;;
22660;SDS011;11497;52.222;21.246;2023-03-01T08:49:13;36.92;;;21.23;;
22660;SDS011;11497;52.222;21.246;2023-03-01T08:51:42;36.78;;;20.15;;
22660;SDS011;11497;52.222;21.246;2023-03-01T08:54:14;38.53;;;20.42;;
22660;SDS011;11497;52.222;21.246;2023-03-01T08:56:43;33.70;;;20.65;;
22660;SDS011;11497;52.222;21.246;2023-03-01T08:59:12;36.88;;;19.83;;
22660;SDS011;11497;52.222;21.246;2023-03-01T09:01:41;36.85;;;20.85;;
22660;SDS011;11497;52.222;21.246;2023-03-01T09:04:10;38.05;;;20.58;;
22660;SDS011;11497;52.222;21.246;2023-03-01T09:06:39;31.92;;;19.50;;
22660;SDS011;11497;52.222;21.246;2023-03-01T09:09:10;29.77;;;17.45;;
22660;SDS011;11497;52.222;21.246;2023-03-01T09:11:43;37.97;;;22.80;;
22660;SDS011;11497;52.222;21.246;2023-03-01T09:14:13;33.92;;;17.67;;
22660;SDS011;11497;52.222;21.246;2023-03-01T09:16:42;34.90;;;19.48;;
22660;SDS011;11497;52.222;21.246;2023-03-01T09:19:10;33.53;;;18.92;;
22660;SDS011;11497;52.222;21.246;2023-03-01T09:21:38;33.28;;;18.08;;
22660;SDS011;11497;52.222;21.246;2023-03-01T09:24:12;32.47;;;17.80;;
22660;SDS011;11497;52.222;21.246;2023-03-01T09:26:41;34.53;;;19.63;;
22660;SDS011;11497;52.222;21.246;2023-03-01T09:29:15;48.67;;;26.80;;
22660;SDS011;11497;52.222;21.246;2023-03-01T09:31:43;59.85;;;30.45;;
22660;SDS011;11497;52.222;21.246;2023-03-01T09:34:11;31.60;;;17.45;;
22660;SDS011;11497;52.222;21.246;2023-03-01T09:36:42;35.17;;;16.67;;
22660;SDS011;11497;52.222;21.246;2023-03-01T09:39:10;33.85;;;17.83;;
22660;SDS011;11497;52.222;21.246;2023-03-01T09:47:27;42.03;;;21.88;;
22660;SDS011;11497;52.222;21.246;2023-03-01T09:52:46;34.75;;;18.45;;
22660;SDS011;11497;52.222;21.246;2023-03-01T09:55:33;35.13;;;17.70;;
22660;SDS011;11497;52.222;21.246;2023-03-01T10:04:10;31.60;;;17.13;;
22660;SDS011;11497;52.222;21.246;2023-03-01T10:09:44;32.53;;;17.55;;
22660;SDS011;11497;52.222;21.246;2023-03-01T10:12:14;31.27;;;16.83;;
22660;SDS011;11497;52.222;21.246;2023-03-01T10:15:00;30.30;;;16.58;;
22660;SDS011;11497;52.222;21.246;2023-03-01T10:20:24;27.15;;;16.38;;
22660;SDS011;11497;52.222;21.246;2023-03-01T10:22:53;28.55;;;15.93;;
22660;SDS011;11497;52.222;21.246;2023-03-01T10:28:11;29.75;;;15.65;;
22660;SDS011;11497;52.222;21.246;2023-03-01T10:30:44;29.80;;;15.18;;
22660;SDS011;11497;52.222;21.246;2023-03-01T10:33:29;31.38;;;15.18;;
22660;SDS011;11497;52.222;21.246;2023-03-01T10:35:59;28.10;;;14.30;;
22660;SDS011;11497;52.222;21.246;2023-03-01T10:38:30;26.95;;;14.18;;
22660;SDS011;11497;52.222;21.246;2023-03-01T10:41:13;24.45;;;13.90;;
22660;SDS011;11497;52.222;21.246;2023-03-01T10:43:49;27.77;;;15.07;;
22660;SDS011;11497;52.222;21.246;2023-03-01T10:46:33;30.90;;;16.52;;
22660;SDS011;11497;52.222;21.246;2023-03-01T10:51:57;40.40;;;19.40;;
22660;SDS011;11497;52.222;21.246;2023-03-01T10:55:04;38.08;;;19.45;;
22660;SDS011;11497;52.222;21.246;2023-03-01T10:57:48;32.33;;;17.27;;
22660;SDS011;11497;52.222;21.246;2023-03-01T11:00:24;35.13;;;17.92;;
22660;SDS011;11497;52.222;21.246;2023-03-01T11:05:50;36.20;;;18.45;;
22660;SDS011;11497;52.222;21.246;2023-03-01T11:08:40;38.80;;;19.88;;
22660;SDS011;11497;52.222;21.246;2023-03-01T11:13:54;35.22;;;19.00;;
22660;SDS011;11497;52.222;21.246;2023-03-01T11:16:24;37.75;;;17.92;;
22660;SDS011;11497;52.222;21.246;2023-03-01T11:19:04;39.92;;;20.80;;
22660;SDS011;11497;52.222;21.246;2023-03-01T11:21:36;38.08;;;19.67;;
22660;SDS011;11497;52.222;21.246;2023-03-01T11:24:17;33.70;;;17.17;;
22660;SDS011;11497;52.222;21.246;2023-03-01T11:26:50;35.97;;;18.58;;
22660;SDS011;11497;52.222;21.246;2023-03-01T11:29:27;30.00;;;17.20;;
22660;SDS011;11497;52.222;21.246;2023-03-01T11:32:14;28.80;;;15.30;;
22660;SDS011;11497;52.222;21.246;2023-03-01T11:34:51;29.73;;;15.52;;
22660;SDS011;11497;52.222;21.246;2023-03-01T11:37:37;28.65;;;15.75;;
22660;SDS011;11497;52.222;21.246;2023-03-01T11:40:21;28.65;;;15.90;;
22660;SDS011;11497;52.222;21.246;2023-03-01T11:45:45;34.38;;;16.60;;
22660;SDS011;11497;52.222;21.246;2023-03-01T11:51:27;29.63;;;15.68;;
22660;SDS011;11497;52.222;21.246;2023-03-01T11:54:05;26.75;;;15.10;;
22660;SDS011;11497;52.222;21.246;2023-03-01T11:56:55;29.10;;;15.57;;
22660;SDS011;11497;52.222;21.246;2023-03-01T12:04:52;36.67;;;16.90;;
22660;SDS011;11497;52.222;21.246;2023-03-01T12:07:50;36.88;;;16.48;;
22660;SDS011;11497;52.222;21.246;2023-03-01T12:10:26;27.23;;;14.85;;
22660;SDS011;11497;52.222;21.246;2023-03-01T12:15:51;28.38;;;16.05;;
22660;SDS011;11497;52.222;21.246;2023-03-01T12:50:23;18.60;;;10.20;;
22660;SDS011;11497;52.222;21.246;2023-03-01T12:52:57;17.42;;;9.25;;
22660;SDS011;11497;52.222;21.246;2023-03-01T13:09:19;19.75;;;10.85;;
22660;SDS011;11497;52.222;21.246;2023-03-01T13:11:55;22.10;;;11.02;;
22660;SDS011;11497;52.222;21.246;2023-03-01T13:16:54;19.95;;;11.25;;
22660;SDS011;11497;52.222;21.246;2023-03-01T13:19:23;22.08;;;11.52;;
22660;SDS011;11497;52.222;21.246;2023-03-01T13:21:53;23.23;;;12.68;;
22660;SDS011;11497;52.222;21.246;2023-03-01T13:24:43;27.58;;;12.38;;
22660;SDS011;11497;52.222;21.246;2023-03-01T13:27:11;26.42;;;12.55;;
22660;SDS011;11497;52.222;21.246;2023-03-01T13:32:24;25.92;;;12.95;;
22660;SDS011;11497;52.222;21.246;2023-03-01T13:37:43;27.30;;;12.30;;
22660;SDS011;11497;52.222;21.246;2023-03-01T13:42:49;29.33;;;14.60;;
22660;SDS011;11497;52.222;21.246;2023-03-01T13:45:49;25.50;;;13.38;;
22660;SDS011;11497;52.222;21.246;2023-03-01T13:48:22;22.27;;;13.07;;
22660;SDS011;11497;52.222;21.246;2023-03-01T13:50:55;28.70;;;15.32;;
22660;SDS011;11497;52.222;21.246;2023-03-01T13:53:31;27.40;;;13.75;;
22660;SDS011;11497;52.222;21.246;2023-03-01T13:56:06;23.90;;;12.88;;
22660;SDS011;11497;52.222;21.246;2023-03-01T13:58:46;22.00;;;12.25;;
22660;SDS011;11497;52.222;21.246;2023-03-01T14:01:24;24.13;;;13.13;;
22660;SDS011;11497;52.222;21.246;2023-03-01T14:03:57;25.20;;;13.23;;
22660;SDS011;11497;52.222;21.246;2023-03-01T14:06:30;27.33;;;13.77;;
22660;SDS011;11497;52.222;21.246;2023-03-01T14:09:05;25.55;;;13.68;;
22660;SDS011;11497;52.222;21.246;2023-03-01T14:14:29;28.50;;;14.50;;
22660;SDS011;11497;52.222;21.246;2023-03-01T14:20:08;26.50;;;14.70;;
22660;SDS011;11497;52.222;21.246;2023-03-01T14:22:38;25.50;;;14.35;;
22660;SDS011;11497;52.222;21.246;2023-03-01T14:27:51;27.33;;;14.57;;
22660;SDS011;11497;52.222;21.246;2023-03-01T14:30:26;29.10;;;14.30;;
22660;SDS011;11497;52.222;21.246;2023-03-01T14:33:05;25.55;;;13.75;;
22660;SDS011;11497;52.222;21.246;2023-03-01T14:35:55;30.75;;;15.55;;
22660;SDS011;11497;52.222;21.246;2023-03-01T14:38:35;31.45;;;15.57;;
22660;SDS011;11497;52.222;21.246;2023-03-01T14:43:46;33.67;;;15.68;;
22660;SDS011;11497;52.222;21.246;2023-03-01T14:46:18;32.13;;;15.55;;
22660;SDS011;11497;52.222;21.246;2023-03-01T14:48:49;30.08;;;16.20;;
22660;SDS011;11497;52.222;21.246;2023-03-01T14:51:23;28.88;;;16.23;;
22660;SDS011;11497;52.222;21.246;2023-03-01T14:53:51;33.55;;;17.00;;
22660;SDS011;11497;52.222;21.246;2023-03-01T14:56:19;33.05;;;17.10;;
22660;SDS011;11497;52.222;21.246;2023-03-01T14:58:50;31.77;;;16.75;;
22660;SDS011;11497;52.222;21.246;2023-03-01T15:01:20;32.78;;;17.83;;
22660;SDS011;11497;52.222;21.246;2023-03-01T15:03:49;37.03;;;17.58;;
22660;SDS011;11497;52.222;21.246;2023-03-01T15:06:18;31.92;;;17.08;;
22660;SDS011;11497;52.222;21.246;2023-03-01T15:08:49;36.63;;;18.17;;
22660;SDS011;11497;52.222;21.246;2023-03-01T15:11:22;35.90;;;17.35;;
22660;SDS011;11497;52.222;21.246;2023-03-01T15:13:56;31.92;;;17.02;;
22660;SDS011;11497;52.222;21.246;2023-03-01T15:16:32;37.97;;;18.05;;
22660;SDS011;11497;52.222;21.246;2023-03-01T15:19:15;31.65;;;17.00;;
22660;SDS011;11497;52.222;21.246;2023-03-01T15:21:46;32.72;;;17.40;;
22660;SDS011;11497;52.222;21.246;2023-03-01T15:24:17;30.55;;;16.65;;
22660;SDS011;11497;52.222;21.246;2023-03-01T15:26:55;38.63;;;17.52;;
22660;SDS011;11497;52.222;21.246;2023-03-01T15:29:33;38.28;;;19.48;;
22660;SDS011;11497;52.222;21.246;2023-03-01T15:34:57;46.10;;;20.27;;
22660;SDS011;11497;52.222;21.246;2023-03-01T15:40:26;38.03;;;18.45;;
22660;SDS011;11497;52.222;21.246;2023-03-01T15:42:59;38.40;;;18.80;;
22660;SDS011;11497;52.222;21.246;2023-03-01T15:45:29;35.58;;;19.00;;
22660;SDS011;11497;52.222;21.246;2023-03-01T15:48:01;34.90;;;18.83;;
22660;SDS011;11497;52.222;21.246;2023-03-01T15:50:41;38.80;;;19.05;;
22660;SDS011;11497;52.222;21.246;2023-03-01T15:53:11;35.50;;;18.88;;
22660;SDS011;11497;52.222;21.246;2023-03-01T15:55:43;34.70;;;18.40;;
22660;SDS011;11497;52.222;21.246;2023-03-01T15:58:13;38.25;;;19.08;;
22660;SDS011;11497;52.222;21.246;2023-03-01T16:00:47;44.63;;;21.67;;
22660;SDS011;11497;52.222;21.246;2023-03-01T16:03:27;37.92;;;19.38;;
22660;SDS011;11497;52.222;21.246;2023-03-01T16:05:55;44.05;;;21.40;;
22660;SDS011;11497;52.222;21.246;2023-03-01T16:08:23;50.58;;;20.38;;
22660;SDS011;11497;52.222;21.246;2023-03-01T16:10:51;48.13;;;22.40;;
22660;SDS011;11497;52.222;21.246;2023-03-01T16:13:21;45.88;;;23.33;;
22660;SDS011;11497;52.222;21.246;2023-03-01T16:15:49;42.15;;;21.80;;
22660;SDS011;11497;52.222;21.246;2023-03-01T16:18:17;40.22;;;20.27;;
22660;SDS011;11497;52.222;21.246;2023-03-01T16:20:44;40.83;;;20.60;;
22660;SDS011;11497;52.222;21.246;2023-03-01T16:23:13;37.33;;;19.42;;
22660;SDS011;11497;52.222;21.246;2023-03-01T16:25:42;40.75;;;20.55;;
22660;SDS011;11497;52.222;21.246;2023-03-01T16:28:10;41.95;;;20.08;;
22660;SDS011;11497;52.222;21.246;2023-03-01T16:30:38;37.33;;;19.70;;
22660;SDS011;11497;52.222;21.246;2023-03-01T16:33:07;40.17;;;20.30;;
22660;SDS011;11497;52.222;21.246;2023-03-01T16:35:55;60.42;;;28.98;;
22660;SDS011;11497;52.222;21.246;2023-03-01T16:38:23;93.13;;;41.60;;
22660;SDS011;11497;52.222;21.246;2023-03-01T16:40:51;164.95;;;70.20;;
22660;SDS011;11497;52.222;21.246;2023-03-01T16:43:19;125.60;;;55.58;;
22660;SDS011;11497;52.222;21.246;2023-03-01T16:45:47;113.70;;;50.40;;
22660;SDS011;11497;52.222;21.246;2023-03-01T16:48:15;87.43;;;42.67;;
22660;SDS011;11497;52.222;21.246;2023-03-01T16:50:43;80.88;;;37.28;;
22660;SDS011;11497;52.222;21.246;2023-03-01T16:53:11;67.22;;;31.23;;
22660;SDS011;11497;52.222;21.246;2023-03-01T16:55:39;53.58;;;26.73;;
22660;SDS011;11497;52.222;21.246;2023-03-01T16:58:12;50.08;;;24.10;;
22660;SDS011;11497;52.222;21.246;2023-03-01T17:00:41;48.00;;;22.25;;
22660;SDS011;11497;52.222;21.246;2023-03-01T17:03:10;52.40;;;23.10;;
22660;SDS011;11497;52.222;21.246;2023-03-01T17:05:40;52.45;;;24.58;;
22660;SDS011;11497;52.222;21.246;2023-03-01T17:08:08;44.72;;;23.27;;